Time;durP1;ratioP1;P1;durP2;ratioP2;P2;SDS_P1;SDS_P2;PMS_P1;PMS_P2;Temp;Humidity;BMP_temperature;BMP_pressure;BME280_temperature;BME280_humidity;BME280_pressure;Samples;Min_cycle;Max_cycle;Signal;HPM_P1;HPM_P2
2021/06/16 00:01:36;;;;;;;6.07;3.87;;;15.40;89.90;;;;;;6099773;23;20515;-75
2021/06/16 00:04:06;;;;;;;4.43;3.50;;;15.30;89.90;;;;;;6100116;23;20416;-75
2021/06/16 00:06:34;;;;;;;6.03;4.20;;;15.30;90.00;;;;;;6135037;23;20430;-75
2021/06/16 00:09:06;;;;;;;3.73;3.30;;;15.30;90.40;;;;;;6135864;23;20186;-75
2021/06/16 00:11:34;;;;;;;7.00;3.80;;;15.30;90.30;;;;;;6136469;23;20381;-75
2021/06/16 00:14:04;;;;;;;4.53;4.00;;;15.20;90.30;;;;;;6124457;23;20418;-74
2021/06/16 00:16:32;;;;;;;6.00;4.60;;;15.20;90.30;;;;;;6099533;23;20884;-74
2021/06/16 00:19:01;;;;;;;5.00;4.50;;;15.20;90.30;;;;;;6135936;23;20451;-75
2021/06/16 00:21:29;;;;;;;5.70;4.50;;;15.10;90.40;;;;;;6099817;23;20532;-75
2021/06/16 00:23:57;;;;;;;6.37;4.80;;;15.10;90.40;;;;;;6101649;23;20449;-75
2021/06/16 00:26:26;;;;;;;7.63;4.97;;;15.00;90.40;;;;;;6137888;23;20393;-75
2021/06/16 00:28:54;;;;;;;7.30;5.30;;;15.00;90.50;;;;;;6101739;23;20404;-75
2021/06/16 00:31:22;;;;;;;5.00;4.00;;;15.00;90.50;;;;;;6102123;23;20533;-75
2021/06/16 00:33:51;;;;;;;4.90;4.40;;;14.90;90.50;;;;;;6137357;23;20432;-75
2021/06/16 00:36:19;;;;;;;6.00;4.53;;;14.90;90.60;;;;;;6138098;23;20381;-75
2021/06/16 00:38:47;;;;;;;5.67;5.07;;;14.90;90.60;;;;;;6101577;23;20490;-74
2021/06/16 00:41:15;;;;;;;6.63;4.40;;;14.90;90.70;;;;;;6137283;23;20406;-75
2021/06/16 00:43:45;;;;;;;4.73;4.33;;;14.90;90.80;;;;;;6102022;23;20396;-75
2021/06/16 00:46:13;;;;;;;6.33;5.10;;;14.80;90.80;;;;;;6101872;23;20422;-75
2021/06/16 00:48:42;;;;;;;5.60;4.30;;;14.80;90.80;;;;;;6101415;23;20469;-74
2021/06/16 00:51:10;;;;;;;5.17;4.67;;;14.80;90.80;;;;;;6101728;23;20396;-74
2021/06/16 00:53:38;;;;;;;5.33;4.73;;;14.80;90.90;;;;;;6125981;23;20467;-74
2021/06/16 00:56:06;;;;;;;6.10;4.50;;;14.80;90.90;;;;;;6101519;23;20779;-74
2021/06/16 00:58:34;;;;;;;5.40;4.77;;;14.70;91.20;;;;;;6137589;23;20396;-75
2021/06/16 01:01:10;;;;;;;6.83;5.10;;;14.70;90.90;;;;;;6127652;23;20889;-75
2021/06/16 01:03:45;;;;;;;11.70;5.00;;;14.60;91.00;;;;;;6137243;23;20441;-75
2021/06/16 01:06:22;;;;;;;5.47;4.70;;;14.60;91.00;;;;;;6137134;23;20409;-75
2021/06/16 01:08:59;;;;;;;7.23;4.87;;;14.60;91.00;;;;;;6101446;23;20423;-74
2021/06/16 01:11:29;;;;;;;6.50;4.53;;;14.60;91.10;;;;;;6101543;23;20475;-75
2021/06/16 01:14:05;;;;;;;6.43;5.20;;;14.50;91.10;;;;;;6101373;23;20502;-74
2021/06/16 01:16:40;;;;;;;5.87;4.47;;;14.50;91.20;;;;;;6137112;23;20360;-75
2021/06/16 01:19:18;;;;;;;7.80;5.50;;;14.40;91.20;;;;;;6125827;23;20435;-75
2021/06/16 01:21:55;;;;;;;9.53;6.53;;;14.40;91.30;;;;;;6125911;23;20400;-75
2021/06/16 01:24:27;;;;;;;9.13;5.20;;;14.40;91.30;;;;;;6137292;23;20409;-75
2021/06/16 01:26:57;;;;;;;5.60;5.10;;;14.40;91.40;;;;;;6101349;23;20181;-74
2021/06/16 01:29:30;;;;;;;7.03;5.27;;;14.30;91.40;;;;;;6100862;23;20420;-75
2021/06/16 01:31:59;;;;;;;5.53;4.77;;;14.30;91.50;;;;;;6101269;23;20406;-75
2021/06/16 01:34:28;;;;;;;6.80;5.67;;;14.30;91.50;;;;;;6100915;23;20517;-74
2021/06/16 01:36:59;;;;;;;8.00;4.93;;;14.30;91.50;;;;;;6101066;23;20453;-75
2021/06/16 01:39:32;;;;;;;5.43;4.93;;;14.20;91.50;;;;;;6100829;23;20443;-75
2021/06/16 01:42:08;;;;;;;9.33;5.67;;;14.20;91.50;;;;;;6100999;23;20961;-74
2021/06/16 01:44:37;;;;;;;5.70;5.20;;;14.20;91.60;;;;;;6137125;23;20740;-75
2021/06/16 01:47:07;;;;;;;6.90;5.40;;;14.20;91.60;;;;;;6100924;23;20432;-74
2021/06/16 01:49:36;;;;;;;6.13;4.70;;;14.10;91.60;;;;;;6100930;23;20380;-75
2021/06/16 01:52:06;;;;;;;5.50;4.93;;;14.10;91.70;;;;;;6101055;23;20491;-74
2021/06/16 01:54:36;;;;;;;7.23;4.73;;;14.10;91.80;;;;;;6100768;23;20397;-75
2021/06/16 01:57:07;;;;;;;7.40;5.23;;;14.10;91.80;;;;;;6125378;23;20432;-75
2021/06/16 01:59:40;;;;;;;5.80;5.20;;;14.00;91.80;;;;;;6100789;23;20441;-74
2021/06/16 02:02:08;;;;;;;6.83;5.13;;;14.00;91.90;;;;;;6126485;23;20448;-75
2021/06/16 02:04:37;;;;;;;5.90;4.50;;;14.00;92.00;;;;;;6100879;23;20397;-74
2021/06/16 02:07:09;;;;;;;5.50;4.90;;;14.00;92.00;;;;;;6125156;23;20431;-74
2021/06/16 02:09:39;;;;;;;5.30;4.80;;;13.90;92.10;;;;;;6100729;23;20437;-75
2021/06/16 02:12:13;;;;;;;6.27;5.37;;;13.90;92.10;;;;;;6100734;23;20526;-74
2021/06/16 02:14:48;;;;;;;5.40;4.57;;;13.90;92.20;;;;;;6100767;23;20724;-74
2021/06/16 02:17:18;;;;;;;6.30;5.80;;;13.90;92.30;;;;;;6100681;23;20417;-74
2021/06/16 02:19:48;;;;;;;7.07;5.30;;;13.90;92.30;;;;;;6101344;23;20770;-74
2021/06/16 02:22:16;;;;;;;5.90;5.00;;;13.90;92.30;;;;;;6135068;23;20410;-75
2021/06/16 02:24:46;;;;;;;5.60;4.70;;;13.90;92.90;;;;;;6136774;23;20169;-74
2021/06/16 02:27:15;;;;;;;6.57;4.83;;;13.90;92.70;;;;;;6136664;23;20377;-75
2021/06/16 02:29:43;;;;;;;6.20;4.77;;;13.90;92.70;;;;;;6124809;23;20430;-74
2021/06/16 02:32:12;;;;;;;6.75;5.53;;;13.90;92.70;;;;;;6099486;23;20904;-75
2021/06/16 02:34:40;;;;;;;7.00;5.43;;;13.90;93.20;;;;;;6100432;23;20174;-75
2021/06/16 02:37:14;;;;;;;6.07;5.40;;;13.90;93.10;;;;;;6100227;23;20856;-75
2021/06/16 02:39:45;;;;;;;5.10;4.70;;;13.80;93.00;;;;;;6100579;23;20463;-74
2021/06/16 02:42:15;;;;;;;5.20;4.80;;;13.80;93.10;;;;;;6125040;23;20424;-75
2021/06/16 02:44:45;;;;;;;7.20;5.20;;;13.70;93.10;;;;;;6136070;23;20357;-74
2021/06/16 02:47:14;;;;;;;7.17;5.60;;;13.70;93.10;;;;;;6100610;23;20916;-75
2021/06/16 02:49:48;;;;;;;6.60;5.03;;;13.60;93.10;;;;;;6124880;23;20484;-74
2021/06/16 02:52:21;;;;;;;7.87;5.27;;;13.60;93.20;;;;;;6124902;23;20663;-74
2021/06/16 02:54:57;;;;;;;5.40;4.87;;;13.60;93.20;;;;;;6100430;23;20694;-75
2021/06/16 02:57:29;;;;;;;6.70;5.23;;;13.60;93.30;;;;;;6136019;23;20394;-75
2021/06/16 02:59:59;;;;;;;10.00;5.43;;;13.60;93.30;;;;;;6100414;23;20473;-74
2021/06/16 03:02:30;;;;;;;6.07;5.47;;;13.60;93.40;;;;;;6126409;23;20488;-75
2021/06/16 03:04:59;;;;;;;5.97;5.37;;;13.60;93.50;;;;;;6124681;23;20468;-75
2021/06/16 03:07:29;;;;;;;4.67;4.27;;;13.50;93.50;;;;;;6126755;23;20418;-75
2021/06/16 03:09:59;;;;;;;8.13;5.00;;;13.50;93.50;;;;;;6100378;23;20479;-75
2021/06/16 03:12:30;;;;;;;7.43;6.30;;;13.50;93.60;;;;;;6124595;23;20414;-74
2021/06/16 03:15:00;;;;;;;8.20;5.90;;;13.50;93.60;;;;;;6126749;23;20417;-74
2021/06/16 03:17:29;;;;;;;7.30;5.67;;;13.50;93.60;;;;;;6136524;23;20411;-75
2021/06/16 03:19:58;;;;;;;5.80;5.20;;;13.50;93.70;;;;;;6100454;23;20509;-75
2021/06/16 03:22:28;;;;;;;6.10;5.50;;;13.50;93.80;;;;;;6124558;23;20426;-75
2021/06/16 03:24:57;;;;;;;5.90;5.40;;;13.50;93.80;;;;;;6100041;23;20442;-74
2021/06/16 03:27:27;;;;;;;6.90;6.20;;;13.40;93.80;;;;;;6100560;23;20446;-75
2021/06/16 03:29:57;;;;;;;9.40;6.00;;;13.40;93.90;;;;;;6135971;23;20408;-74
2021/06/16 03:32:28;;;;;;;8.70;5.40;;;13.40;94.00;;;;;;6135728;23;20365;-75
2021/06/16 03:34:56;;;;;;;7.07;6.37;;;13.40;94.00;;;;;;6100244;23;20418;-74
2021/06/16 03:37:26;;;;;;;6.80;6.20;;;13.40;94.10;;;;;;6101007;23;20488;-74
2021/06/16 03:39:55;;;;;;;7.27;6.57;;;13.40;94.20;;;;;;6136149;23;20905;-74
2021/06/16 03:42:24;;;;;;;7.83;6.50;;;13.40;94.30;;;;;;6126438;23;20401;-74
2021/06/16 03:44:54;;;;;;;6.82;6.10;;;13.40;94.50;;;;;;6124438;23;20453;-74
2021/06/16 03:47:28;;;;;;;6.40;5.90;;;13.40;95.10;;;;;;6135558;23;20850;-75
2021/06/16 03:49:58;;;;;;;6.50;5.70;;;13.40;95.00;;;;;;6100262;23;20809;-75
2021/06/16 03:52:27;;;;;;;7.10;6.43;;;13.40;95.00;;;;;;6101585;23;20445;-74
2021/06/16 03:54:56;;;;;;;6.07;5.47;;;13.40;95.10;;;;;;6100069;23;20399;-74
2021/06/16 03:57:25;;;;;;;6.63;5.83;;;13.40;95.10;;;;;;6137244;23;20409;-75
2021/06/16 03:59:53;;;;;;;6.77;5.60;;;13.40;95.20;;;;;;6126456;23;20429;-74
2021/06/16 04:02:22;;;;;;;9.30;5.80;;;13.40;95.30;;;;;;6138157;23;20441;-75
2021/06/16 04:04:52;;;;;;;7.33;6.60;;;13.40;95.40;;;;;;6137773;23;20411;-74
2021/06/16 04:07:22;;;;;;;11.70;10.13;;;13.40;95.50;;;;;;6128141;23;20444;-75
2021/06/16 04:09:53;;;;;;;8.00;7.20;;;13.40;95.50;;;;;;6137646;23;20378;-74
2021/06/16 04:12:22;;;;;;;11.37;10.17;;;13.40;95.90;;;;;;6101860;23;20413;-74
2021/06/16 04:14:50;;;;;;;8.80;7.97;;;13.40;95.70;;;;;;6102020;23;20867;-74
2021/06/16 04:17:19;;;;;;;22.83;15.50;;;13.40;95.80;;;;;;6102169;23;20421;-75
2021/06/16 04:19:49;;;;;;;7.83;7.20;;;13.40;95.90;;;;;;6137585;23;20936;-74
2021/06/16 04:22:19;;;;;;;10.37;8.10;;;13.40;96.10;;;;;;6102007;23;20417;-75
2021/06/16 04:24:47;;;;;;;7.90;7.10;;;13.40;96.20;;;;;;6102289;23;20770;-75
2021/06/16 04:27:16;;;;;;;7.90;7.20;;;13.50;96.30;;;;;;6101736;23;20381;-75
2021/06/16 04:29:44;;;;;;;9.73;7.10;;;13.50;96.40;;;;;;6126102;23;20807;-75
2021/06/16 04:32:13;;;;;;;7.97;7.07;;;13.50;96.50;;;;;;6101768;23;20393;-74
2021/06/16 04:34:41;;;;;;;8.60;7.07;;;13.50;96.70;;;;;;6126012;23;20828;-74
2021/06/16 04:37:10;;;;;;;12.47;6.87;;;13.50;96.70;;;;;;6126471;23;20492;-75
2021/06/16 04:39:42;;;;;;;8.20;6.63;;;13.50;96.80;;;;;;6102175;23;20422;-75
2021/06/16 04:42:11;;;;;;;8.80;7.13;;;13.60;97.00;;;;;;6137933;23;20398;-75
2021/06/16 04:44:39;;;;;;;7.90;7.10;;;13.60;97.10;;;;;;6137873;23;20753;-75
2021/06/16 04:47:07;;;;;;;8.20;7.40;;;13.60;97.10;;;;;;6126308;23;20508;-74
2021/06/16 04:49:36;;;;;;;8.60;6.70;;;13.70;97.30;;;;;;6137434;23;20406;-74
2021/06/16 04:52:05;;;;;;;7.87;7.10;;;13.70;97.40;;;;;;6101743;23;20802;-75
2021/06/16 04:54:34;;;;;;;7.10;6.40;;;13.70;97.50;;;;;;6137484;23;20429;-74
2021/06/16 04:57:06;;;;;;;12.33;7.70;;;13.80;97.60;;;;;;6137502;23;20489;-74
2021/06/16 04:59:35;;;;;;;10.13;7.60;;;13.80;97.70;;;;;;6101700;23;20476;-75
2021/06/16 05:02:04;;;;;;;7.60;6.80;;;13.80;97.70;;;;;;6096619;23;20758;-75
2021/06/16 05:04:32;;;;;;;8.43;7.63;;;13.90;97.90;;;;;;6096596;23;20470;-75
2021/06/16 05:07:00;;;;;;;11.20;7.83;;;13.90;97.90;;;;;;6096391;23;20998;-75
2021/06/16 05:09:28;;;;;;;10.57;7.07;;;14.00;98.00;;;;;;6120414;23;20417;-75
2021/06/16 05:11:56;;;;;;;8.27;7.50;;;14.00;98.10;;;;;;6098214;23;20453;-74
2021/06/16 05:14:26;;;;;;;7.67;6.97;;;14.10;98.20;;;;;;6108089;23;20452;-75
2021/06/16 05:16:54;;;;;;;9.30;6.40;;;14.10;98.30;;;;;;6096872;23;20401;-75
2021/06/16 05:19:24;;;;;;;7.83;7.10;;;14.20;98.70;;;;;;6097044;23;20533;-74
2021/06/16 05:21:52;;;;;;;8.67;7.10;;;14.30;98.50;;;;;;6108395;23;20430;-75
2021/06/16 05:24:21;;;;;;;7.10;6.10;;;14.30;98.60;;;;;;6096545;23;20466;-75
2021/06/16 05:26:49;;;;;;;9.97;7.20;;;14.40;98.70;;;;;;6108188;23;20873;-75
2021/06/16 05:29:17;;;;;;;6.47;5.37;;;14.50;98.70;;;;;;6096648;23;20786;-75
2021/06/16 05:31:47;;;;;;;11.60;6.47;;;14.60;98.80;;;;;;6096628;23;20382;-75
2021/06/16 05:34:15;;;;;;;6.10;5.37;;;14.70;98.80;;;;;;6107734;23;20376;-74
2021/06/16 05:36:43;;;;;;;6.30;5.20;;;14.80;98.80;;;;;;6096740;23;20415;-75
2021/06/16 05:39:11;;;;;;;7.00;5.50;;;15.00;98.90;;;;;;6096392;23;20424;-74
2021/06/16 05:41:39;;;;;;;7.20;5.27;;;15.20;98.90;;;;;;6096627;23;20419;-75
2021/06/16 05:44:07;;;;;;;9.50;5.10;;;15.50;99.00;;;;;;6096208;23;20861;-75
2021/06/16 05:46:36;;;;;;;5.30;4.63;;;15.70;99.00;;;;;;6108097;23;20426;-74
2021/06/16 05:49:06;;;;;;;5.97;4.20;;;16.00;99.00;;;;;;6096391;23;20445;-75
2021/06/16 05:51:34;;;;;;;5.00;4.50;;;16.30;98.90;;;;;;6107582;23;20789;-75
2021/06/16 05:54:02;;;;;;;4.33;3.90;;;16.60;98.80;;;;;;6096355;23;20519;-75
2021/06/16 05:56:30;;;;;;;7.53;3.73;;;16.90;98.70;;;;;;6096289;23;20428;-75
2021/06/16 05:58:58;;;;;;;4.43;3.67;;;17.10;98.50;;;;;;6096089;23;20517;-75
2021/06/16 06:01:26;;;;;;;5.00;3.50;;;17.40;98.50;;;;;;6099125;23;20447;-76
2021/06/16 06:03:56;;;;;;;4.10;3.43;;;17.70;98.40;;;;;;6127420;23;20487;-76
2021/06/16 06:06:27;;;;;;;5.32;3.72;;;18.00;98.60;;;;;;6100552;23;20486;-75
2021/06/16 06:08:56;;;;;;;4.63;3.90;;;18.40;97.80;;;;;;6128208;23;20722;-75
2021/06/16 06:11:24;;;;;;;5.27;3.67;;;18.70;97.70;;;;;;6101056;23;20525;-75
2021/06/16 06:13:52;;;;;;;5.13;3.70;;;19.00;97.50;;;;;;6125439;23;20422;-75
2021/06/16 06:16:21;;;;;;;5.40;3.33;;;19.20;97.30;;;;;;6124672;23;20762;-75
2021/06/16 06:18:49;;;;;;;4.60;3.77;;;19.50;96.50;;;;;;6125197;23;20200;-76
2021/06/16 06:21:17;;;;;;;3.10;2.80;;;19.80;96.50;;;;;;6124904;23;20443;-76
2021/06/16 06:23:47;;;;;;;4.60;3.50;;;20.10;96.40;;;;;;6125299;23;20424;-75
2021/06/16 06:26:15;;;;;;;4.10;3.20;;;20.30;96.30;;;;;;6100787;23;20447;-76
2021/06/16 06:28:43;;;;;;;4.93;3.30;;;20.60;96.20;;;;;;6100855;23;20690;-76
2021/06/16 06:31:11;;;;;;;3.60;3.30;;;20.80;96.10;;;;;;6136598;23;20508;-75
2021/06/16 06:33:40;;;;;;;8.43;3.67;;;21.10;95.80;;;;;;6100743;23;20511;-75
2021/06/16 06:36:08;;;;;;;5.10;2.77;;;21.30;95.60;;;;;;6137097;23;20415;-76
2021/06/16 06:38:36;;;;;;;3.30;2.90;;;21.60;95.50;;;;;;6100596;23;20467;-76
2021/06/16 06:41:06;;;;;;;5.10;3.27;;;21.80;95.40;;;;;;6136207;23;20503;-76
2021/06/16 06:43:34;;;;;;;8.67;4.30;;;22.00;95.20;;;;;;6126826;23;20469;-76
2021/06/16 06:46:02;;;;;;;6.93;3.40;;;22.30;95.00;;;;;;6124771;23;20904;-76
2021/06/16 06:48:30;;;;;;;4.80;3.67;;;22.50;94.70;;;;;;6124714;23;20527;-76
2021/06/16 06:50:59;;;;;;;4.53;3.50;;;22.60;94.20;;;;;;6100422;23;20423;-76
2021/06/16 06:53:29;;;;;;;11.10;7.67;;;22.70;93.80;;;;;;6100527;23;20431;-76
2021/06/16 06:55:58;;;;;;;6.00;4.67;;;22.90;93.80;;;;;;6125795;23;20417;-76
2021/06/16 06:58:28;;;;;;;7.47;2.90;;;23.00;93.60;;;;;;6100854;23;20442;-76
2021/06/16 07:00:57;;;;;;;3.23;2.43;;;23.30;93.50;;;;;;6136391;23;20388;-76
2021/06/16 07:03:26;;;;;;;3.80;2.87;;;23.40;93.20;;;;;;6125265;23;20425;-76
2021/06/16 07:05:54;;;;;;;4.43;3.20;;;23.50;92.80;;;;;;6100500;23;20952;-77
2021/06/16 07:08:23;;;;;;;5.17;3.40;;;23.70;92.70;;;;;;6100354;23;20512;-77
2021/06/16 07:10:51;;;;;;;3.00;2.00;;;23.90;92.50;;;;;;6100510;23;20801;-77
2021/06/16 07:13:19;;;;;;;7.10;5.00;;;24.00;92.30;;;;;;6100410;23;20504;-77
2021/06/16 07:16:08;;;;;;;5.53;2.70;;;24.20;92.20;;;;;;6123857;23;20446;-78
2021/06/16 07:18:36;;;;;;;5.57;2.53;;;24.50;90.10;;;;;;6124499;23;20578;-77
2021/06/16 07:21:05;;;;;;;5.63;3.83;;;24.60;90.20;;;;;;6100582;23;20429;-77
2021/06/16 07:23:34;;;;;;;3.93;2.53;;;24.70;90.30;;;;;;6136499;23;20429;-77
2021/06/16 07:26:02;;;;;;;2.87;2.40;;;24.80;90.50;;;;;;6100070;23;20779;-77
2021/06/16 07:28:30;;;;;;;3.00;2.70;;;24.90;89.70;;;;;;6136027;23;20422;-76
2021/06/16 07:30:59;;;;;;;2.60;1.97;;;25.00;89.50;;;;;;6135869;23;20404;-77
2021/06/16 07:33:29;;;;;;;5.20;3.17;;;25.10;89.40;;;;;;6124682;23;20447;-77
2021/06/16 07:35:57;;;;;;;4.00;2.80;;;25.30;89.00;;;;;;6136483;23;20397;-77
2021/06/16 07:38:25;;;;;;;4.27;2.20;;;25.30;88.70;;;;;;6100146;23;20865;-77
2021/06/16 07:40:53;;;;;;;4.27;2.50;;;25.50;88.30;;;;;;6100399;23;20421;-78
2021/06/16 07:43:22;;;;;;;2.53;2.20;;;25.60;88.20;;;;;;6100371;23;20944;-77
2021/06/16 07:45:50;;;;;;;3.73;3.00;;;25.70;87.90;;;;;;6124662;23;20469;-76
2021/06/16 07:48:18;;;;;;;4.90;3.67;;;25.80;87.50;;;;;;6100911;23;21017;-77
2021/06/16 07:50:48;;;;;;;6.50;5.47;;;25.90;87.00;;;;;;6135913;23;20406;-77
2021/06/16 07:53:16;;;;;;;4.70;2.10;;;26.00;86.80;;;;;;6124556;23;20500;-77
2021/06/16 07:55:44;;;;;;;3.10;2.40;;;26.10;86.20;;;;;;6136283;23;20472;-77
2021/06/16 07:58:14;;;;;;;3.40;2.20;;;26.20;85.80;;;;;;6100197;23;20921;-77
2021/06/16 08:00:43;;;;;;;2.90;2.37;;;26.20;85.20;;;;;;6100366;23;20414;-77
2021/06/16 08:03:11;;;;;;;2.70;2.50;;;26.20;85.00;;;;;;6124625;23;20472;-77
2021/06/16 08:05:40;;;;;;;3.47;2.50;;;26.30;85.40;;;;;;6100308;23;20536;-77
2021/06/16 08:08:30;;;;;;;4.93;2.40;;;26.30;84.30;;;;;;6100173;23;20506;-77
2021/06/16 08:10:58;;;;;;;2.80;1.83;;;26.40;83.90;;;;;;6136205;23;20912;-76
2021/06/16 08:13:26;;;;;;;2.87;2.00;;;26.40;83.60;;;;;;6100708;23;20410;-77
2021/06/16 08:15:54;;;;;;;4.33;3.00;;;26.50;83.40;;;;;;6124567;23;20501;-76
2021/06/16 08:18:22;;;;;;;4.67;2.60;;;26.50;83.10;;;;;;6135888;23;20500;-77
2021/06/16 08:20:50;;;;;;;2.20;2.00;;;26.60;82.90;;;;;;6100096;23;20901;-77
2021/06/16 08:23:19;;;;;;;4.00;2.50;;;26.70;82.50;;;;;;6100030;23;20492;-77
2021/06/16 08:25:48;;;;;;;3.37;2.17;;;26.70;82.30;;;;;;6099966;23;20442;-77
2021/06/16 08:28:17;;;;;;;6.80;3.60;;;26.80;81.90;;;;;;6099644;23;20422;-77
2021/06/16 08:30:45;;;;;;;3.00;1.93;;;26.90;80.60;;;;;;6100490;23;20265;-77
2021/06/16 08:33:16;;;;;;;3.90;2.03;;;26.90;80.40;;;;;;6100417;23;20518;-77
2021/06/16 08:35:44;;;;;;;4.13;2.27;;;27.00;79.80;;;;;;6100249;23;20818;-77
2021/06/16 08:38:12;;;;;;;3.50;2.00;;;27.00;79.60;;;;;;6135585;23;20997;-77
2021/06/16 08:40:41;;;;;;;3.03;2.00;;;26.90;79.20;;;;;;6135817;23;20425;-77
2021/06/16 08:43:13;;;;;;;2.27;1.80;;;27.00;79.00;;;;;;6136777;23;20413;-77
2021/06/16 08:45:43;;;;;;;3.83;1.83;;;26.90;78.30;;;;;;6127762;23;20394;-77
2021/06/16 08:48:11;;;;;;;3.40;2.03;;;26.90;78.20;;;;;;6126184;23;20441;-77
2021/06/16 08:50:39;;;;;;;3.50;1.60;;;26.90;78.20;;;;;;6128150;23;20984;-77
2021/06/16 08:53:08;;;;;;;3.27;2.27;;;26.90;78.10;;;;;;6101596;23;20540;-77
2021/06/16 08:55:36;;;;;;;4.63;2.30;;;27.00;78.10;;;;;;6126177;23;20421;-77
2021/06/16 08:58:04;;;;;;;2.43;2.03;;;27.00;78.00;;;;;;6101866;23;20442;-77
2021/06/16 09:00:34;;;;;;;4.33;2.20;;;27.10;77.70;;;;;;6101980;23;20739;-77
2021/06/16 09:03:02;;;;;;;2.80;2.00;;;27.20;77.50;;;;;;6101694;23;20430;-77
2021/06/16 09:05:38;;;;;;;3.67;2.20;;;27.30;77.10;;;;;;6101615;23;20429;-78
2021/06/16 09:08:18;;;;;;;3.50;1.70;;;27.30;77.00;;;;;;6101693;23;20476;-77
2021/06/16 09:10:48;;;;;;;3.97;2.10;;;27.30;76.90;;;;;;6126268;23;20460;-77
2021/06/16 09:13:26;;;;;;;3.27;1.90;;;27.30;76.90;;;;;;6101944;23;20456;-77
2021/06/16 09:15:56;;;;;;;3.60;2.20;;;27.40;76.60;;;;;;6101298;23;20418;-78
2021/06/16 09:18:25;;;;;;;3.50;1.80;;;27.50;75.70;;;;;;6137474;23;20425;-77
2021/06/16 09:20:58;;;;;;;5.50;2.73;;;27.50;75.80;;;;;;6126002;23;20421;-78
2021/06/16 09:23:28;;;;;;;2.57;1.80;;;27.60;76.10;;;;;;6101610;23;20508;-78
2021/06/16 09:26:11;;;;;;;3.40;2.10;;;27.70;76.40;;;;;;6137599;23;20845;-77
2021/06/16 09:28:41;;;;;;;2.85;2.40;;;27.80;75.60;;;;;;6101182;23;20453;-78
2021/06/16 09:31:15;;;;;;;2.53;2.00;;;27.80;74.10;;;;;;6102242;23;20249;-77
2021/06/16 09:33:45;;;;;;;2.30;2.00;;;27.70;73.70;;;;;;6105434;23;20420;-78
2021/06/16 09:36:15;;;;;;;2.60;1.87;;;27.70;73.80;;;;;;6131214;23;20453;-78
2021/06/16 09:38:46;;;;;;;2.50;2.30;;;27.60;73.20;;;;;;6102893;23;20548;-78
2021/06/16 09:41:19;;;;;;;3.60;2.43;;;27.50;73.10;;;;;;6101820;23;20414;-78
2021/06/16 09:43:49;;;;;;;3.37;2.10;;;27.50;73.60;;;;;;6128665;23;20406;-77
2021/06/16 09:46:18;;;;;;;3.60;2.40;;;27.50;73.10;;;;;;6102892;23;20429;-78
2021/06/16 09:48:50;;;;;;;2.60;2.37;;;27.50;72.80;;;;;;6102714;23;20445;-77
2021/06/16 09:51:23;;;;;;;4.17;3.30;;;27.50;72.30;;;;;;6128487;23;20410;-78
2021/06/16 09:54:11;;;;;;;4.57;3.23;;;27.50;72.80;;;;;;6101682;23;20497;-77
2021/06/16 09:56:41;;;;;;;3.77;2.10;;;27.50;72.70;;;;;;6101546;23;20406;-78
2021/06/16 09:59:11;;;;;;;3.20;2.50;;;27.50;72.80;;;;;;6102012;23;20444;-77
2021/06/16 10:01:53;;;;;;;3.30;2.43;;;27.60;72.50;;;;;;6127539;23;20425;-78
2021/06/16 10:04:41;;;;;;;3.53;2.10;;;27.70;72.20;;;;;;6101526;23;20885;-78
2021/06/16 10:07:21;;;;;;;4.00;2.50;;;27.80;72.20;;;;;;6125823;23;20829;-78
2021/06/16 10:09:52;;;;;;;2.00;1.90;;;27.90;72.20;;;;;;6101823;23;20489;-78
2021/06/16 10:12:23;;;;;;;2.30;2.10;;;27.90;71.80;;;;;;6126441;23;20171;-78
2021/06/16 10:14:51;;;;;;;3.97;2.10;;;28.00;71.40;;;;;;6102637;23;20421;-78
2021/06/16 10:17:21;;;;;;;3.37;1.90;;;28.10;71.00;;;;;;6103417;23;20414;-78
2021/06/16 10:19:51;;;;;;;2.47;1.93;;;28.10;70.50;;;;;;6130021;23;20406;-78
2021/06/16 10:22:20;;;;;;;2.50;2.10;;;28.10;71.00;;;;;;6101673;23;20421;-78
2021/06/16 10:24:48;;;;;;;3.67;2.27;;;28.10;71.10;;;;;;6136962;23;20786;-78
2021/06/16 10:27:19;;;;;;;4.13;2.20;;;28.20;70.70;;;;;;6101388;23;20445;-78
2021/06/16 10:29:50;;;;;;;2.87;2.47;;;28.30;70.40;;;;;;6137538;23;20409;-78
2021/06/16 10:32:19;;;;;;;4.13;2.50;;;28.30;69.60;;;;;;6126159;23;20428;-78
2021/06/16 10:35:07;;;;;;;2.50;2.30;;;28.30;69.20;;;;;;6101675;23;20417;-77
2021/06/16 10:37:38;;;;;;;4.17;2.43;;;28.20;68.70;;;;;;6127562;23;20530;-77
2021/06/16 10:40:26;;;;;;;3.50;2.20;;;28.10;68.60;;;;;;6100847;23;20461;-77
2021/06/16 10:43:29;;;;;;;4.60;2.20;;;28.10;68.70;;;;;;6137029;23;20385;-78
2021/06/16 10:46:17;;;;;;;2.90;2.17;;;28.20;69.50;;;;;;6014021;23;20405;-78
2021/06/16 10:48:55;;;;;;;4.63;2.90;;;28.20;69.50;;;;;;6014347;23;20808;-77
2021/06/16 10:51:28;;;;;;;2.93;2.57;;;28.30;69.60;;;;;;6082723;23;20421;-78
2021/06/16 10:54:28;;;;;;;2.50;2.30;;;28.40;69.20;;;;;;6101126;23;20410;-78
2021/06/16 10:57:10;;;;;;;2.97;2.40;;;28.50;68.60;;;;;;6101448;23;20758;-77
2021/06/16 11:00:07;;;;;;;4.47;2.40;;;28.60;68.40;;;;;;6101517;23;20414;-78
2021/06/16 11:02:57;;;;;;;2.85;2.00;;;28.60;68.80;;;;;;6100474;23;20514;-78
2021/06/16 11:05:27;;;;;;;3.30;2.30;;;28.70;68.20;;;;;;6121995;23;20183;-78
2021/06/16 11:07:59;;;;;;;3.33;2.20;;;28.80;68.50;;;;;;6101117;23;20450;-77
2021/06/16 11:10:53;;;;;;;5.07;2.63;;;28.90;68.50;;;;;;6101169;23;20418;-78
2021/06/16 11:13:43;;;;;;;3.00;2.70;;;28.90;67.10;;;;;;6136790;23;20406;-78
2021/06/16 11:16:54;;;;;;;5.03;2.83;;;28.80;67.30;;;;;;6100995;23;20473;-77
2021/06/16 11:19:50;;;;;;;3.10;2.80;;;28.70;67.40;;;;;;6126665;23;20441;-77
2021/06/16 11:22:36;;;;;;;3.07;2.27;;;28.80;67.80;;;;;;6101570;23;20405;-78
2021/06/16 11:25:09;;;;;;;2.30;2.10;;;28.80;67.70;;;;;;6127051;23;20459;-78
2021/06/16 11:28:09;;;;;;;2.50;2.10;;;28.80;67.80;;;;;;6125362;23;20461;-77
2021/06/16 11:30:47;;;;;;;3.10;2.53;;;28.90;68.00;;;;;;6098479;23;20413;-77
2021/06/16 11:33:32;;;;;;;3.30;2.70;;;28.90;68.10;;;;;;6136660;23;20386;-78
2021/06/16 11:36:07;;;;;;;2.70;2.50;;;28.90;68.20;;;;;;6125143;23;20437;-77
2021/06/16 11:38:37;;;;;;;2.40;2.20;;;29.00;68.00;;;;;;6126272;23;20991;-77
2021/06/16 11:41:15;;;;;;;5.07;2.33;;;29.00;68.10;;;;;;6100248;23;20504;-77
2021/06/16 11:43:45;;;;;;;3.13;2.60;;;29.00;68.00;;;;;;6100587;23;20481;-77
2021/06/16 11:46:16;;;;;;;4.20;2.40;;;29.10;68.00;;;;;;6136244;23;20428;-77
2021/06/16 11:48:47;;;;;;;4.43;2.83;;;29.10;68.20;;;;;;6124443;23;20450;-76
2021/06/16 11:51:30;;;;;;;4.03;2.80;;;29.10;68.20;;;;;;6100246;23;20831;-77
2021/06/16 11:54:19;;;;;;;3.13;2.80;;;29.20;67.90;;;;;;6126617;23;20405;-77
2021/06/16 11:56:50;;;;;;;5.00;3.90;;;29.20;68.00;;;;;;6100370;23;20453;-77
2021/06/16 11:59:31;;;;;;;5.40;4.37;;;29.20;68.20;;;;;;6100660;23;20437;-77
2021/06/16 12:02:15;;;;;;;3.40;2.73;;;29.20;68.50;;;;;;6124745;23;20449;-77
2021/06/16 12:04:57;;;;;;;3.70;2.70;;;29.20;67.90;;;;;;6124762;23;20438;-77
2021/06/16 12:07:28;;;;;;;3.13;2.83;;;29.20;67.90;;;;;;6126111;23;20841;-77
2021/06/16 12:09:57;;;;;;;4.33;3.40;;;29.30;67.90;;;;;;6100517;23;20405;-77
2021/06/16 12:12:27;;;;;;;3.55;2.80;;;29.30;67.80;;;;;;6123865;23;20484;-76
2021/06/16 12:15:10;;;;;;;3.03;2.70;;;29.40;67.70;;;;;;6136335;23;20633;-77
2021/06/16 12:18:01;;;;;;;3.40;3.10;;;29.40;67.40;;;;;;6125608;23;20951;-76
2021/06/16 12:20:31;;;;;;;2.80;2.60;;;29.40;67.60;;;;;;6126474;23;20409;-77
2021/06/16 12:23:00;;;;;;;3.93;2.57;;;29.40;67.60;;;;;;6138301;23;20937;-77
2021/06/16 12:25:31;;;;;;;2.83;2.57;;;29.30;67.60;;;;;;6102267;23;20460;-77
2021/06/16 12:28:02;;;;;;;3.90;3.00;;;29.30;67.40;;;;;;6137957;23;20757;-77
2021/06/16 12:30:33;;;;;;;4.80;2.93;;;29.30;67.30;;;;;;6101923;23;20843;-77
2021/06/16 12:33:17;;;;;;;3.90;3.13;;;29.30;67.10;;;;;;6101927;23;20422;-77
2021/06/16 12:35:58;;;;;;;3.57;2.80;;;29.40;67.50;;;;;;6128208;23;20449;-77
2021/06/16 12:38:41;;;;;;;5.80;5.00;;;29.40;67.40;;;;;;6137787;23;20534;-77
2021/06/16 12:41:27;;;;;;;3.17;2.80;;;29.40;67.40;;;;;;6102006;23;20405;-76
2021/06/16 12:44:20;;;;;;;4.03;3.17;;;29.40;67.30;;;;;;6127831;23;20453;-77
2021/06/16 12:46:59;;;;;;;3.43;3.10;;;29.40;67.40;;;;;;6101669;23;20845;-77
2021/06/16 12:49:30;;;;;;;3.70;3.00;;;29.50;67.70;;;;;;6101172;23;20418;-76
2021/06/16 12:52:02;;;;;;;4.00;3.70;;;29.50;68.00;;;;;;6137514;23;20238;-77
2021/06/16 12:54:33;;;;;;;4.53;3.70;;;29.60;67.90;;;;;;6101879;23;20881;-77
2021/06/16 12:57:06;;;;;;;4.10;3.80;;;29.60;67.70;;;;;;6137503;23;20393;-77
2021/06/16 12:59:37;;;;;;;3.97;3.40;;;29.70;67.70;;;;;;6137328;23;20753;-77
2021/06/16 13:02:06;;;;;;;4.80;3.70;;;29.60;67.70;;;;;;6137816;23;20749;-77
2021/06/16 13:04:52;;;;;;;3.90;3.60;;;29.70;67.90;;;;;;6101825;23;20422;-78
2021/06/16 13:07:22;;;;;;;4.20;3.80;;;29.70;68.20;;;;;;6126542;23;20406;-77
2021/06/16 13:10:01;;;;;;;5.13;4.73;;;29.80;68.70;;;;;;6101740;23;20441;-77